sensor_id;sensor_type;location;lat;lon;timestamp;pressure;altitude;pressure_sealevel;temperature;humidity
56182;BME280;51963;46.052;14.544;2024-03-17T00:01:10;98689.94;;;7.83;100.00
56182;BME280;51963;46.052;14.544;2024-03-17T00:03:35;98676.41;;;7.61;100.00
56182;BME280;51963;46.052;14.544;2024-03-17T00:06:01;98683.13;;;7.55;100.00
56182;BME280;51963;46.052;14.544;2024-03-17T00:08:29;98697.16;;;7.64;100.00
56182;BME280;51963;46.052;14.544;2024-03-17T00:10:55;98689.28;;;7.72;100.00
56182;BME280;51963;46.052;14.544;2024-03-17T00:13:21;98684.97;;;7.63;100.00
56182;BME280;51963;46.052;14.544;2024-03-17T00:15:48;98679.72;;;7.71;100.00
56182;BME280;51963;46.052;14.544;2024-03-17T00:18:14;98692.56;;;7.66;100.00
56182;BME280;51963;46.052;14.544;2024-03-17T00:20:40;98691.38;;;7.69;100.00
56182;BME280;51963;46.052;14.544;2024-03-17T00:23:05;98698.13;;;7.63;100.00
56182;BME280;51963;46.052;14.544;2024-03-17T00:25:32;98685.44;;;7.58;100.00
56182;BME280;51963;46.052;14.544;2024-03-17T00:28:00;98681.81;;;7.59;100.00
56182;BME280;51963;46.052;14.544;2024-03-17T00:30:25;98685.97;;;7.62;100.00
56182;BME280;51963;46.052;14.544;2024-03-17T00:32:51;98678.09;;;7.78;100.00
56182;BME280;51963;46.052;14.544;2024-03-17T00:35:22;98687.78;;;7.78;100.00
56182;BME280;51963;46.052;14.544;2024-03-17T00:37:48;98685.03;;;7.88;100.00
56182;BME280;51963;46.052;14.544;2024-03-17T00:40:15;98676.75;;;7.66;100.00
56182;BME280;51963;46.052;14.544;2024-03-17T00:42:42;98696.19;;;7.82;100.00
56182;BME280;51963;46.052;14.544;2024-03-17T00:45:08;98678.03;;;7.54;100.00
56182;BME280;51963;46.052;14.544;2024-03-17T00:47:35;98681.03;;;7.59;100.00
56182;BME280;51963;46.052;14.544;2024-03-17T00:50:01;98670.00;;;7.63;100.00
56182;BME280;51963;46.052;14.544;2024-03-17T00:52:28;98677.09;;;7.63;100.00
56182;BME280;51963;46.052;14.544;2024-03-17T00:54:56;98675.88;;;7.49;100.00
56182;BME280;51963;46.052;14.544;2024-03-17T00:57:22;98684.28;;;7.44;100.00
56182;BME280;51963;46.052;14.544;2024-03-17T00:59:48;98670.75;;;7.31;100.00
56182;BME280;51963;46.052;14.544;2024-03-17T01:02:15;98678.31;;;7.34;100.00
56182;BME280;51963;46.052;14.544;2024-03-17T01:04:45;98665.13;;;7.26;100.00
56182;BME280;51963;46.052;14.544;2024-03-17T01:07:11;98663.16;;;7.28;100.00
56182;BME280;51963;46.052;14.544;2024-03-17T01:09:37;98678.63;;;7.31;100.00
56182;BME280;51963;46.052;14.544;2024-03-17T01:12:03;98675.50;;;7.36;100.00
56182;BME280;51963;46.052;14.544;2024-03-17T01:14:29;98679.09;;;7.26;100.00
56182;BME280;51963;46.052;14.544;2024-03-17T01:16:59;98658.56;;;7.22;100.00
56182;BME280;51963;46.052;14.544;2024-03-17T01:19:25;98648.03;;;7.22;100.00
56182;BME280;51963;46.052;14.544;2024-03-17T01:21:52;98657.56;;;7.23;100.00
56182;BME280;51963;46.052;14.544;2024-03-17T01:24:18;98655.56;;;7.16;100.00
56182;BME280;51963;46.052;14.544;2024-03-17T01:26:44;98661.63;;;7.17;100.00
56182;BME280;51963;46.052;14.544;2024-03-17T01:29:10;98676.31;;;7.28;100.00
56182;BME280;51963;46.052;14.544;2024-03-17T01:31:35;98673.69;;;7.28;100.00
56182;BME280;51963;46.052;14.544;2024-03-17T01:34:01;98664.81;;;7.29;100.00
56182;BME280;51963;46.052;14.544;2024-03-17T01:36:27;98658.38;;;7.23;100.00
56182;BME280;51963;46.052;14.544;2024-03-17T01:38:52;98671.03;;;7.19;100.00
56182;BME280;51963;46.052;14.544;2024-03-17T01:41:18;98660.75;;;7.00;100.00
56182;BME280;51963;46.052;14.544;2024-03-17T01:43:46;98673.81;;;7.18;100.00
56182;BME280;51963;46.052;14.544;2024-03-17T01:46:14;98661.16;;;7.13;100.00
56182;BME280;51963;46.052;14.544;2024-03-17T01:48:46;98668.38;;;7.11;100.00
56182;BME280;51963;46.052;14.544;2024-03-17T01:51:13;98667.50;;;7.02;100.00
56182;BME280;51963;46.052;14.544;2024-03-17T01:53:41;98679.88;;;7.10;100.00
56182;BME280;51963;46.052;14.544;2024-03-17T01:56:10;98661.88;;;6.97;100.00
56182;BME280;51963;46.052;14.544;2024-03-17T01:58:36;98662.72;;;6.98;100.00
56182;BME280;51963;46.052;14.544;2024-03-17T02:01:04;98675.72;;;7.08;100.00
56182;BME280;51963;46.052;14.544;2024-03-17T02:03:32;98680.00;;;7.09;100.00
56182;BME280;51963;46.052;14.544;2024-03-17T02:05:58;98677.25;;;7.10;100.00
56182;BME280;51963;46.052;14.544;2024-03-17T02:08:24;98686.81;;;7.19;100.00
56182;BME280;51963;46.052;14.544;2024-03-17T02:10:54;98639.34;;;6.86;100.00
56182;BME280;51963;46.052;14.544;2024-03-17T02:13:20;98651.53;;;6.96;100.00
56182;BME280;51963;46.052;14.544;2024-03-17T02:15:47;98675.59;;;7.09;100.00
56182;BME280;51963;46.052;14.544;2024-03-17T02:18:12;98676.59;;;7.16;100.00
56182;BME280;51963;46.052;14.544;2024-03-17T02:20:39;98677.09;;;7.20;100.00
56182;BME280;51963;46.052;14.544;2024-03-17T02:23:20;98667.75;;;7.17;100.00
56182;BME280;51963;46.052;14.544;2024-03-17T02:25:46;98658.66;;;7.12;100.00
56182;BME280;51963;46.052;14.544;2024-03-17T02:28:13;98684.00;;;7.21;100.00
56182;BME280;51963;46.052;14.544;2024-03-17T02:30:39;98662.47;;;7.17;100.00
56182;BME280;51963;46.052;14.544;2024-03-17T02:33:04;98675.13;;;7.22;100.00
56182;BME280;51963;46.052;14.544;2024-03-17T02:35:30;98673.75;;;7.44;100.00
56182;BME280;51963;46.052;14.544;2024-03-17T02:37:57;98680.13;;;7.42;100.00
56182;BME280;51963;46.052;14.544;2024-03-17T02:40:22;98679.91;;;7.18;100.00
56182;BME280;51963;46.052;14.544;2024-03-17T02:42:48;98690.81;;;7.32;100.00
56182;BME280;51963;46.052;14.544;2024-03-17T02:45:14;98675.16;;;7.30;100.00
56182;BME280;51963;46.052;14.544;2024-03-17T02:47:40;98687.88;;;7.43;100.00
56182;BME280;51963;46.052;14.544;2024-03-17T02:50:07;98678.09;;;7.19;100.00
56182;BME280;51963;46.052;14.544;2024-03-17T02:52:33;98686.91;;;7.10;100.00
56182;BME280;51963;46.052;14.544;2024-03-17T02:54:59;98695.38;;;6.95;100.00
56182;BME280;51963;46.052;14.544;2024-03-17T02:57:28;98678.72;;;6.78;100.00
56182;BME280;51963;46.052;14.544;2024-03-17T03:00:00;98687.81;;;6.92;100.00
56182;BME280;51963;46.052;14.544;2024-03-17T03:02:25;98678.91;;;6.85;100.00
56182;BME280;51963;46.052;14.544;2024-03-17T03:04:52;98669.94;;;6.96;100.00
56182;BME280;51963;46.052;14.544;2024-03-17T03:07:17;98684.47;;;7.08;100.00
56182;BME280;51963;46.052;14.544;2024-03-17T03:09:43;98674.88;;;6.99;100.00
56182;BME280;51963;46.052;14.544;2024-03-17T03:12:09;98649.38;;;6.91;100.00
56182;BME280;51963;46.052;14.544;2024-03-17T03:14:34;98681.41;;;6.86;100.00
56182;BME280;51963;46.052;14.544;2024-03-17T03:17:00;98682.50;;;6.84;100.00
56182;BME280;51963;46.052;14.544;2024-03-17T03:19:28;98688.28;;;6.87;100.00
56182;BME280;51963;46.052;14.544;2024-03-17T03:21:55;98685.31;;;6.82;100.00
56182;BME280;51963;46.052;14.544;2024-03-17T03:24:21;98689.84;;;6.72;100.00
56182;BME280;51963;46.052;14.544;2024-03-17T03:26:47;98688.88;;;6.73;100.00
56182;BME280;51963;46.052;14.544;2024-03-17T03:29:16;98697.06;;;6.70;100.00
56182;BME280;51963;46.052;14.544;2024-03-17T03:31:42;98703.69;;;6.56;100.00
56182;BME280;51963;46.052;14.544;2024-03-17T03:34:07;98706.22;;;6.66;100.00
56182;BME280;51963;46.052;14.544;2024-03-17T03:36:34;98705.25;;;6.67;100.00
56182;BME280;51963;46.052;14.544;2024-03-17T03:39:02;98714.22;;;6.82;100.00
56182;BME280;51963;46.052;14.544;2024-03-17T03:41:30;98707.47;;;6.80;100.00
56182;BME280;51963;46.052;14.544;2024-03-17T03:43:55;98699.75;;;6.78;100.00
56182;BME280;51963;46.052;14.544;2024-03-17T03:46:21;98712.25;;;6.84;100.00
56182;BME280;51963;46.052;14.544;2024-03-17T03:48:47;98710.31;;;6.86;100.00
56182;BME280;51963;46.052;14.544;2024-03-17T03:51:12;98719.69;;;6.63;100.00
56182;BME280;51963;46.052;14.544;2024-03-17T03:53:39;98720.97;;;6.58;100.00
56182;BME280;51963;46.052;14.544;2024-03-17T03:56:05;98718.03;;;6.43;100.00
56182;BME280;51963;46.052;14.544;2024-03-17T03:58:33;98708.16;;;6.37;100.00
56182;BME280;51963;46.052;14.544;2024-03-17T04:01:07;98725.78;;;6.45;100.00
56182;BME280;51963;46.052;14.544;2024-03-17T04:03:34;98707.03;;;6.40;100.00
56182;BME280;51963;46.052;14.544;2024-03-17T04:06:05;98721.78;;;6.59;100.00
56182;BME280;51963;46.052;14.544;2024-03-17T04:08:33;98725.19;;;6.51;100.00
56182;BME280;51963;46.052;14.544;2024-03-17T04:11:01;98718.59;;;6.47;100.00
56182;BME280;51963;46.052;14.544;2024-03-17T04:13:30;98705.69;;;6.36;100.00
56182;BME280;51963;46.052;14.544;2024-03-17T04:15:57;98716.22;;;6.62;100.00
56182;BME280;51963;46.052;14.544;2024-03-17T04:18:27;98723.91;;;6.82;100.00
56182;BME280;51963;46.052;14.544;2024-03-17T04:20:57;98734.94;;;6.85;100.00
56182;BME280;51963;46.052;14.544;2024-03-17T04:23:23;98741.25;;;6.74;100.00
56182;BME280;51963;46.052;14.544;2024-03-17T04:25:50;98744.00;;;6.65;100.00
56182;BME280;51963;46.052;14.544;2024-03-17T04:28:16;98733.50;;;6.65;100.00
56182;BME280;51963;46.052;14.544;2024-03-17T04:30:45;98743.69;;;6.68;100.00
56182;BME280;51963;46.052;14.544;2024-03-17T04:33:11;98742.72;;;6.69;100.00
56182;BME280;51963;46.052;14.544;2024-03-17T04:35:38;98735.88;;;6.76;100.00
56182;BME280;51963;46.052;14.544;2024-03-17T04:38:09;98733.00;;;6.69;100.00
56182;BME280;51963;46.052;14.544;2024-03-17T04:40:42;98752.31;;;6.78;100.00
56182;BME280;51963;46.052;14.544;2024-03-17T04:43:08;98716.56;;;6.41;100.00
56182;BME280;51963;46.052;14.544;2024-03-17T04:45:34;98740.47;;;6.56;100.00
56182;BME280;51963;46.052;14.544;2024-03-17T04:48:02;98751.88;;;6.65;100.00
56182;BME280;51963;46.052;14.544;2024-03-17T04:50:28;98739.56;;;6.65;100.00
56182;BME280;51963;46.052;14.544;2024-03-17T04:52:59;98748.16;;;6.75;100.00
56182;BME280;51963;46.052;14.544;2024-03-17T04:55:25;98748.59;;;6.63;100.00
56182;BME280;51963;46.052;14.544;2024-03-17T04:57:51;98740.63;;;6.54;100.00
56182;BME280;51963;46.052;14.544;2024-03-17T05:00:16;98752.56;;;6.67;100.00
56182;BME280;51963;46.052;14.544;2024-03-17T05:02:44;98762.69;;;6.62;100.00
56182;BME280;51963;46.052;14.544;2024-03-17T05:05:09;98751.63;;;6.31;100.00
56182;BME280;51963;46.052;14.544;2024-03-17T05:07:36;98774.19;;;6.60;100.00
56182;BME280;51963;46.052;14.544;2024-03-17T05:10:03;98776.06;;;6.50;100.00
56182;BME280;51963;46.052;14.544;2024-03-17T05:12:29;98778.94;;;6.39;100.00
56182;BME280;51963;46.052;14.544;2024-03-17T05:14:54;98783.06;;;6.23;100.00
56182;BME280;51963;46.052;14.544;2024-03-17T05:17:20;98773.09;;;5.99;100.00
56182;BME280;51963;46.052;14.544;2024-03-17T05:19:46;98770.88;;;6.04;100.00
56182;BME280;51963;46.052;14.544;2024-03-17T05:22:11;98759.34;;;6.15;100.00
56182;BME280;51963;46.052;14.544;2024-03-17T05:24:37;98783.72;;;6.25;100.00
56182;BME280;51963;46.052;14.544;2024-03-17T05:27:03;98792.19;;;6.19;100.00
56182;BME280;51963;46.052;14.544;2024-03-17T05:29:29;98793.78;;;6.12;100.00
56182;BME280;51963;46.052;14.544;2024-03-17T05:31:55;98796.09;;;6.15;100.00
56182;BME280;51963;46.052;14.544;2024-03-17T05:34:21;98791.06;;;6.04;100.00
56182;BME280;51963;46.052;14.544;2024-03-17T05:36:50;98797.81;;;6.06;100.00
56182;BME280;51963;46.052;14.544;2024-03-17T05:39:16;98794.06;;;6.09;100.00
56182;BME280;51963;46.052;14.544;2024-03-17T05:41:42;98791.31;;;6.28;100.00
56182;BME280;51963;46.052;14.544;2024-03-17T05:44:12;98763.16;;;6.21;100.00
56182;BME280;51963;46.052;14.544;2024-03-17T05:46:37;98798.03;;;6.31;100.00
56182;BME280;51963;46.052;14.544;2024-03-17T05:49:07;98796.41;;;6.12;100.00
56182;BME280;51963;46.052;14.544;2024-03-17T05:51:35;98809.81;;;6.09;100.00
56182;BME280;51963;46.052;14.544;2024-03-17T05:54:00;98806.72;;;6.13;100.00
56182;BME280;51963;46.052;14.544;2024-03-17T05:56:27;98812.16;;;6.30;100.00
56182;BME280;51963;46.052;14.544;2024-03-17T05:58:55;98815.25;;;6.25;100.00
56182;BME280;51963;46.052;14.544;2024-03-17T06:01:21;98817.56;;;6.28;100.00
56182;BME280;51963;46.052;14.544;2024-03-17T06:03:48;98785.81;;;6.04;100.00
56182;BME280;51963;46.052;14.544;2024-03-17T06:06:13;98809.22;;;6.15;100.00
56182;BME280;51963;46.052;14.544;2024-03-17T06:08:40;98827.59;;;6.33;100.00
56182;BME280;51963;46.052;14.544;2024-03-17T06:11:06;98811.38;;;6.01;100.00
56182;BME280;51963;46.052;14.544;2024-03-17T06:13:32;98809.91;;;5.89;100.00
56182;BME280;51963;46.052;14.544;2024-03-17T06:15:57;98790.09;;;5.77;100.00
56182;BME280;51963;46.052;14.544;2024-03-17T06:18:26;98832.94;;;6.23;100.00
56182;BME280;51963;46.052;14.544;2024-03-17T06:20:52;98831.28;;;6.40;100.00
56182;BME280;51963;46.052;14.544;2024-03-17T06:23:25;98826.88;;;6.41;100.00
56182;BME280;51963;46.052;14.544;2024-03-17T06:25:59;98844.81;;;6.64;100.00
56182;BME280;51963;46.052;14.544;2024-03-17T06:28:30;98816.97;;;6.35;100.00
56182;BME280;51963;46.052;14.544;2024-03-17T06:31:27;98845.47;;;6.84;100.00
56182;BME280;51963;46.052;14.544;2024-03-17T06:34:21;98847.66;;;6.88;100.00
56182;BME280;51963;46.052;14.544;2024-03-17T06:36:47;98844.13;;;6.98;100.00
56182;BME280;51963;46.052;14.544;2024-03-17T06:39:40;98843.88;;;7.09;100.00
56182;BME280;51963;46.052;14.544;2024-03-17T06:42:22;98839.53;;;7.00;100.00
56182;BME280;51963;46.052;14.544;2024-03-17T06:45:15;98858.06;;;7.16;100.00
56182;BME280;51963;46.052;14.544;2024-03-17T06:47:56;98861.03;;;7.22;100.00
56182;BME280;51963;46.052;14.544;2024-03-17T06:50:22;98867.31;;;7.02;100.00
56182;BME280;51963;46.052;14.544;2024-03-17T06:52:48;98868.69;;;6.88;100.00
56182;BME280;51963;46.052;14.544;2024-03-17T06:55:19;98869.44;;;6.99;100.00
56182;BME280;51963;46.052;14.544;2024-03-17T06:57:53;98833.59;;;6.98;100.00
56182;BME280;51963;46.052;14.544;2024-03-17T07:00:19;98846.38;;;7.19;100.00
56182;BME280;51963;46.052;14.544;2024-03-17T07:02:53;98832.38;;;7.10;100.00
56182;BME280;51963;46.052;14.544;2024-03-17T07:05:25;98818.50;;;7.00;100.00
56182;BME280;51963;46.052;14.544;2024-03-17T07:07:54;98829.31;;;6.97;100.00
56182;BME280;51963;46.052;14.544;2024-03-17T07:10:21;98867.34;;;7.29;100.00
56182;BME280;51963;46.052;14.544;2024-03-17T07:12:46;98884.00;;;7.38;100.00
56182;BME280;51963;46.052;14.544;2024-03-17T07:15:12;98879.56;;;7.38;100.00
56182;BME280;51963;46.052;14.544;2024-03-17T07:17:37;98877.31;;;7.43;100.00
56182;BME280;51963;46.052;14.544;2024-03-17T07:20:03;98881.00;;;7.59;100.00
56182;BME280;51963;46.052;14.544;2024-03-17T07:22:33;98889.81;;;7.76;100.00
56182;BME280;51963;46.052;14.544;2024-03-17T07:24:59;98891.31;;;7.78;100.00
56182;BME280;51963;46.052;14.544;2024-03-17T07:27:29;98894.22;;;7.67;100.00
56182;BME280;51963;46.052;14.544;2024-03-17T07:29:55;98891.22;;;7.62;100.00
56182;BME280;51963;46.052;14.544;2024-03-17T07:32:21;98894.44;;;7.47;100.00
56182;BME280;51963;46.052;14.544;2024-03-17T07:34:48;98892.56;;;7.66;100.00
56182;BME280;51963;46.052;14.544;2024-03-17T07:37:15;98890.50;;;7.52;100.00
56182;BME280;51963;46.052;14.544;2024-03-17T07:39:41;98891.50;;;7.32;100.00
56182;BME280;51963;46.052;14.544;2024-03-17T07:42:06;98892.78;;;7.46;100.00
56182;BME280;51963;46.052;14.544;2024-03-17T07:44:32;98895.91;;;7.76;100.00
56182;BME280;51963;46.052;14.544;2024-03-17T07:47:01;98890.44;;;8.04;100.00
56182;BME280;51963;46.052;14.544;2024-03-17T07:49:38;98883.94;;;8.25;100.00
56182;BME280;51963;46.052;14.544;2024-03-17T07:52:12;98873.63;;;8.40;100.00
56182;BME280;51963;46.052;14.544;2024-03-17T07:54:37;98865.16;;;8.20;100.00
56182;BME280;51963;46.052;14.544;2024-03-17T07:57:11;98895.34;;;8.42;100.00
56182;BME280;51963;46.052;14.544;2024-03-17T07:59:40;98903.81;;;8.54;100.00
56182;BME280;51963;46.052;14.544;2024-03-17T08:02:08;98906.78;;;8.59;100.00
56182;BME280;51963;46.052;14.544;2024-03-17T08:04:33;98884.47;;;8.37;100.00
56182;BME280;51963;46.052;14.544;2024-03-17T08:07:08;98892.94;;;8.65;100.00
56182;BME280;51963;46.052;14.544;2024-03-17T08:09:33;98902.47;;;8.50;100.00
56182;BME280;51963;46.052;14.544;2024-03-17T08:11:59;98898.13;;;8.32;100.00
56182;BME280;51963;46.052;14.544;2024-03-17T08:14:59;98906.75;;;8.08;100.00
56182;BME280;51963;46.052;14.544;2024-03-17T08:17:26;98901.16;;;8.54;100.00
56182;BME280;51963;46.052;14.544;2024-03-17T08:20:16;98899.78;;;8.42;100.00
56182;BME280;51963;46.052;14.544;2024-03-17T08:30:19;98840.44;;;8.13;100.00
56182;BME280;51963;46.052;14.544;2024-03-17T08:32:45;98894.47;;;8.93;100.00
56182;BME280;51963;46.052;14.544;2024-03-17T08:35:10;98888.66;;;8.64;100.00
56182;BME280;51963;46.052;14.544;2024-03-17T08:37:36;98887.28;;;8.44;100.00
56182;BME280;51963;46.052;14.544;2024-03-17T08:40:27;98890.97;;;8.68;100.00
56182;BME280;51963;46.052;14.544;2024-03-17T08:43:07;98872.41;;;8.94;100.00
56182;BME280;51963;46.052;14.544;2024-03-17T08:46:00;98862.81;;;9.26;100.00
56182;BME280;51963;46.052;14.544;2024-03-17T08:48:40;98852.41;;;9.24;100.00
56182;BME280;51963;46.052;14.544;2024-03-17T08:51:13;98836.59;;;9.16;100.00
56182;BME280;51963;46.052;14.544;2024-03-17T08:53:39;98871.34;;;9.45;100.00
56182;BME280;51963;46.052;14.544;2024-03-17T08:56:30;98863.38;;;9.69;100.00
56182;BME280;51963;46.052;14.544;2024-03-17T08:58:56;98838.41;;;9.80;100.00
56182;BME280;51963;46.052;14.544;2024-03-17T09:01:28;98863.34;;;10.18;100.00
56182;BME280;51963;46.052;14.544;2024-03-17T09:03:54;98869.69;;;10.00;100.00
56182;BME280;51963;46.052;14.544;2024-03-17T09:06:25;98867.69;;;10.02;100.00
56182;BME280;51963;46.052;14.544;2024-03-17T09:08:55;98853.22;;;10.30;100.00
56182;BME280;51963;46.052;14.544;2024-03-17T09:11:21;98860.78;;;10.41;100.00
56182;BME280;51963;46.052;14.544;2024-03-17T09:13:54;98841.88;;;10.52;100.00
56182;BME280;51963;46.052;14.544;2024-03-17T09:16:20;98855.56;;;10.24;100.00
56182;BME280;51963;46.052;14.544;2024-03-17T09:18:48;98845.88;;;10.08;100.00
56182;BME280;51963;46.052;14.544;2024-03-17T09:21:20;98851.34;;;10.38;100.00
56182;BME280;51963;46.052;14.544;2024-03-17T09:23:46;98845.28;;;10.84;100.00
56182;BME280;51963;46.052;14.544;2024-03-17T09:26:21;98832.47;;;10.73;100.00
56182;BME280;51963;46.052;14.544;2024-03-17T09:29:10;98850.81;;;11.51;100.00
56182;BME280;51963;46.052;14.544;2024-03-17T09:31:36;98843.84;;;11.80;100.00
56182;BME280;51963;46.052;14.544;2024-03-17T09:34:02;98853.53;;;12.40;100.00
56182;BME280;51963;46.052;14.544;2024-03-17T09:36:28;98841.41;;;12.96;100.00
56182;BME280;51963;46.052;14.544;2024-03-17T09:38:54;98848.31;;;13.18;100.00
56182;BME280;51963;46.052;14.544;2024-03-17T09:41:20;98841.78;;;13.78;100.00
56182;BME280;51963;46.052;14.544;2024-03-17T09:43:47;98847.25;;;15.01;100.00
56182;BME280;51963;46.052;14.544;2024-03-17T09:46:14;98842.44;;;15.70;97.08
56182;BME280;51963;46.052;14.544;2024-03-17T09:48:41;98833.84;;;16.27;90.01
56182;BME280;51963;46.052;14.544;2024-03-17T09:51:17;98830.56;;;16.32;94.80
56182;BME280;51963;46.052;14.544;2024-03-17T09:53:44;98831.84;;;16.54;85.11
56182;BME280;51963;46.052;14.544;2024-03-17T09:56:11;98820.97;;;17.13;80.64
56182;BME280;51963;46.052;14.544;2024-03-17T09:59:03;98814.59;;;17.33;75.87
56182;BME280;51963;46.052;14.544;2024-03-17T10:01:36;98816.59;;;17.38;84.20
56182;BME280;51963;46.052;14.544;2024-03-17T10:04:01;98785.50;;;17.62;76.82
56182;BME280;51963;46.052;14.544;2024-03-17T10:06:44;98813.34;;;17.36;77.19
56182;BME280;51963;46.052;14.544;2024-03-17T10:09:15;98812.00;;;17.45;80.80
56182;BME280;51963;46.052;14.544;2024-03-17T10:11:52;98806.06;;;17.80;77.30
56182;BME280;51963;46.052;14.544;2024-03-17T10:14:17;98776.72;;;18.11;75.60
56182;BME280;51963;46.052;14.544;2024-03-17T10:16:43;98802.59;;;18.29;71.80
56182;BME280;51963;46.052;14.544;2024-03-17T10:19:15;98793.22;;;19.16;63.51
56182;BME280;51963;46.052;14.544;2024-03-17T10:21:44;98797.38;;;18.88;69.07
56182;BME280;51963;46.052;14.544;2024-03-17T10:24:24;98778.66;;;19.24;67.31
56182;BME280;51963;46.052;14.544;2024-03-17T10:26:52;98777.03;;;19.23;65.91
56182;BME280;51963;46.052;14.544;2024-03-17T10:29:24;98787.16;;;19.33;66.69
56182;BME280;51963;46.052;14.544;2024-03-17T10:34:17;98778.94;;;20.04;59.60
56182;BME280;51963;46.052;14.544;2024-03-17T10:36:51;98781.28;;;20.30;55.94
56182;BME280;51963;46.052;14.544;2024-03-17T10:39:24;98783.72;;;19.61;56.62
56182;BME280;51963;46.052;14.544;2024-03-17T10:41:56;98771.78;;;19.81;56.72
56182;BME280;51963;46.052;14.544;2024-03-17T10:44:23;98769.97;;;20.28;53.92
56182;BME280;51963;46.052;14.544;2024-03-17T10:46:53;98750.31;;;21.07;51.83
56182;BME280;51963;46.052;14.544;2024-03-17T10:49:31;98760.75;;;21.65;52.49
56182;BME280;51963;46.052;14.544;2024-03-17T10:51:59;98752.69;;;21.88;51.50
56182;BME280;51963;46.052;14.544;2024-03-17T10:54:28;98770.53;;;22.49;50.50
56182;BME280;51963;46.052;14.544;2024-03-17T10:59:36;98754.16;;;22.61;49.33
56182;BME280;51963;46.052;14.544;2024-03-17T11:02:23;98746.34;;;23.40;46.88
56182;BME280;51963;46.052;14.544;2024-03-17T11:04:51;98741.41;;;23.90;43.00
56182;BME280;51963;46.052;14.544;2024-03-17T11:07:18;98732.00;;;24.34;43.05
56182;BME280;51963;46.052;14.544;2024-03-17T11:09:45;98722.22;;;23.92;44.28
56182;BME280;51963;46.052;14.544;2024-03-17T11:17:49;98726.41;;;26.03;39.51
56182;BME280;51963;46.052;14.544;2024-03-17T11:20:22;98704.44;;;26.05;38.30
56182;BME280;51963;46.052;14.544;2024-03-17T11:22:51;98702.44;;;25.21;41.01
56182;BME280;51963;46.052;14.544;2024-03-17T11:25:40;98700.00;;;25.85;39.45
56182;BME280;51963;46.052;14.544;2024-03-17T11:28:09;98698.09;;;25.80;39.90
56182;BME280;51963;46.052;14.544;2024-03-17T11:39:04;98680.91;;;26.70;37.66
56182;BME280;51963;46.052;14.544;2024-03-17T11:51:02;98665.34;;;29.00;34.01
56182;BME280;51963;46.052;14.544;2024-03-17T11:53:41;98629.66;;;29.16;32.84
56182;BME280;51963;46.052;14.544;2024-03-17T11:56:28;98628.38;;;28.24;34.33
56182;BME280;51963;46.052;14.544;2024-03-17T11:59:21;98607.56;;;26.80;36.28
56182;BME280;51963;46.052;14.544;2024-03-17T12:01:49;98636.00;;;26.29;36.42
56182;BME280;51963;46.052;14.544;2024-03-17T12:11:23;98621.81;;;26.67;36.75
56182;BME280;51963;46.052;14.544;2024-03-17T12:21:05;98582.72;;;29.69;31.94
56182;BME280;51963;46.052;14.544;2024-03-17T12:23:31;98573.63;;;30.28;31.29
56182;BME280;51963;46.052;14.544;2024-03-17T12:25:57;98567.88;;;28.18;33.64
56182;BME280;51963;46.052;14.544;2024-03-17T12:28:23;98575.19;;;27.32;34.33
56182;BME280;51963;46.052;14.544;2024-03-17T12:30:49;98576.38;;;27.98;34.21
56182;BME280;51963;46.052;14.544;2024-03-17T12:33:15;98548.28;;;29.96;32.07
56182;BME280;51963;46.052;14.544;2024-03-17T12:35:41;98551.78;;;30.20;31.67
56182;BME280;51963;46.052;14.544;2024-03-17T12:38:27;98565.06;;;31.11;30.66
56182;BME280;51963;46.052;14.544;2024-03-17T12:40:53;98557.66;;;31.11;29.92
56182;BME280;51963;46.052;14.544;2024-03-17T12:43:18;98560.25;;;31.16;29.71
56182;BME280;51963;46.052;14.544;2024-03-17T12:45:44;98560.38;;;30.94;29.55
56182;BME280;51963;46.052;14.544;2024-03-17T12:48:14;98555.44;;;30.55;30.05
56182;BME280;51963;46.052;14.544;2024-03-17T12:50:46;98549.66;;;31.59;29.15
56182;BME280;51963;46.052;14.544;2024-03-17T12:53:16;98550.94;;;31.61;29.01
56182;BME280;51963;46.052;14.544;2024-03-17T12:59:41;98534.97;;;28.48;32.57
56182;BME280;51963;46.052;14.544;2024-03-17T13:02:29;98480.72;;;27.67;34.28
56182;BME280;51963;46.052;14.544;2024-03-17T13:05:20;98462.22;;;27.36;33.64
56182;BME280;51963;46.052;14.544;2024-03-17T13:08:03;98477.03;;;29.12;31.94
56182;BME280;51963;46.052;14.544;2024-03-17T13:10:32;98479.00;;;28.97;31.21
56182;BME280;51963;46.052;14.544;2024-03-17T13:13:09;98489.53;;;29.13;30.98
56182;BME280;51963;46.052;14.544;2024-03-17T13:16:18;98479.47;;;30.98;28.65
56182;BME280;51963;46.052;14.544;2024-03-17T13:18:50;98495.78;;;31.68;27.83
56182;BME280;51963;46.052;14.544;2024-03-17T13:21:15;98465.06;;;31.89;27.87
56182;BME280;51963;46.052;14.544;2024-03-17T13:23:42;98451.34;;;30.88;28.37
56182;BME280;51963;46.052;14.544;2024-03-17T13:26:13;98452.16;;;31.15;27.76
56182;BME280;51963;46.052;14.544;2024-03-17T13:28:50;98493.41;;;29.89;29.79
56182;BME280;51963;46.052;14.544;2024-03-17T13:31:47;98457.94;;;29.49;30.93
56182;BME280;51963;46.052;14.544;2024-03-17T13:34:12;98462.63;;;29.57;29.67
56182;BME280;51963;46.052;14.544;2024-03-17T13:36:38;98467.41;;;31.34;28.06
56182;BME280;51963;46.052;14.544;2024-03-17T13:39:07;98458.50;;;29.60;30.58
56182;BME280;51963;46.052;14.544;2024-03-17T13:46:05;98458.75;;;30.97;28.29
56182;BME280;51963;46.052;14.544;2024-03-17T13:50:17;98452.16;;;30.71;28.83
56182;BME280;51963;46.052;14.544;2024-03-17T13:57:16;98446.28;;;28.89;29.99
56182;BME280;51963;46.052;14.544;2024-03-17T13:59:42;98432.59;;;28.15;31.09
56182;BME280;51963;46.052;14.544;2024-03-17T14:03:00;98396.22;;;28.11;30.43
56182;BME280;51963;46.052;14.544;2024-03-17T14:06:59;98432.94;;;27.00;32.32
56182;BME280;51963;46.052;14.544;2024-03-17T14:14:51;98397.16;;;26.16;33.76